sensor_id;sensor_type;location;lat;lon;timestamp;P1;durP1;ratioP1;P2;durP2;ratioP2
7645;SDS011;3864;48.180;14.178;2024-02-26T00:00:44;23.77;;;12.50;;
7645;SDS011;3864;48.180;14.178;2024-02-26T00:03:12;24.25;;;12.32;;
7645;SDS011;3864;48.180;14.178;2024-02-26T00:05:39;26.42;;;12.13;;
7645;SDS011;3864;48.180;14.178;2024-02-26T00:08:06;28.17;;;13.10;;
7645;SDS011;3864;48.180;14.178;2024-02-26T00:10:34;22.58;;;12.65;;
7645;SDS011;3864;48.180;14.178;2024-02-26T00:13:01;28.20;;;12.90;;
7645;SDS011;3864;48.180;14.178;2024-02-26T00:15:29;28.52;;;12.38;;
7645;SDS011;3864;48.180;14.178;2024-02-26T00:17:58;23.92;;;11.48;;
7645;SDS011;3864;48.180;14.178;2024-02-26T00:20:25;25.67;;;12.27;;
7645;SDS011;3864;48.180;14.178;2024-02-26T00:22:52;23.73;;;11.90;;
7645;SDS011;3864;48.180;14.178;2024-02-26T00:25:19;25.00;;;12.88;;
7645;SDS011;3864;48.180;14.178;2024-02-26T00:27:46;22.05;;;11.65;;
7645;SDS011;3864;48.180;14.178;2024-02-26T00:32:41;17.23;;;10.18;;
7645;SDS011;3864;48.180;14.178;2024-02-26T00:37:37;17.17;;;11.43;;
7645;SDS011;3864;48.180;14.178;2024-02-26T00:42:33;17.92;;;10.48;;
7645;SDS011;3864;48.180;14.178;2024-02-26T00:45:00;22.05;;;10.40;;
7645;SDS011;3864;48.180;14.178;2024-02-26T00:47:28;31.52;;;11.73;;
7645;SDS011;3864;48.180;14.178;2024-02-26T00:49:55;41.05;;;12.93;;
7645;SDS011;3864;48.180;14.178;2024-02-26T00:52:25;51.92;;;13.38;;
7645;SDS011;3864;48.180;14.178;2024-02-26T00:54:54;30.52;;;11.85;;
7645;SDS011;3864;48.180;14.178;2024-02-26T00:57:21;29.25;;;11.70;;
7645;SDS011;3864;48.180;14.178;2024-02-26T00:59:48;54.13;;;12.63;;
7645;SDS011;3864;48.180;14.178;2024-02-26T01:02:15;27.15;;;11.48;;
7645;SDS011;3864;48.180;14.178;2024-02-26T01:07:09;19.90;;;10.18;;
7645;SDS011;3864;48.180;14.178;2024-02-26T01:09:39;20.00;;;10.52;;
7645;SDS011;3864;48.180;14.178;2024-02-26T01:12:06;37.42;;;11.15;;
7645;SDS011;3864;48.180;14.178;2024-02-26T01:14:33;53.38;;;12.68;;
7645;SDS011;3864;48.180;14.178;2024-02-26T01:17:00;23.88;;;11.60;;
7645;SDS011;3864;48.180;14.178;2024-02-26T01:19:28;21.77;;;10.20;;
7645;SDS011;3864;48.180;14.178;2024-02-26T01:21:55;30.00;;;12.45;;
7645;SDS011;3864;48.180;14.178;2024-02-26T01:24:21;41.75;;;12.48;;
7645;SDS011;3864;48.180;14.178;2024-02-26T01:26:50;39.05;;;12.48;;
7645;SDS011;3864;48.180;14.178;2024-02-26T01:29:17;51.65;;;13.05;;
7645;SDS011;3864;48.180;14.178;2024-02-26T01:34:11;26.00;;;10.48;;
7645;SDS011;3864;48.180;14.178;2024-02-26T01:36:39;49.13;;;11.98;;
7645;SDS011;3864;48.180;14.178;2024-02-26T01:39:06;52.42;;;13.02;;
7645;SDS011;3864;48.180;14.178;2024-02-26T01:41:36;29.33;;;11.98;;
7645;SDS011;3864;48.180;14.178;2024-02-26T01:44:06;38.00;;;12.50;;
7645;SDS011;3864;48.180;14.178;2024-02-26T01:46:34;25.10;;;11.27;;
7645;SDS011;3864;48.180;14.178;2024-02-26T01:49:02;21.15;;;11.27;;
7645;SDS011;3864;48.180;14.178;2024-02-26T01:51:29;29.05;;;12.50;;
7645;SDS011;3864;48.180;14.178;2024-02-26T01:53:58;39.50;;;12.40;;
7645;SDS011;3864;48.180;14.178;2024-02-26T01:56:26;26.50;;;11.07;;
7645;SDS011;3864;48.180;14.178;2024-02-26T01:58:56;33.22;;;12.43;;
7645;SDS011;3864;48.180;14.178;2024-02-26T02:01:26;22.00;;;11.55;;
7645;SDS011;3864;48.180;14.178;2024-02-26T02:03:56;20.38;;;10.80;;
7645;SDS011;3864;48.180;14.178;2024-02-26T02:06:25;28.23;;;11.98;;
7645;SDS011;3864;48.180;14.178;2024-02-26T02:08:54;22.90;;;10.88;;
7645;SDS011;3864;48.180;14.178;2024-02-26T02:11:21;27.10;;;11.65;;
7645;SDS011;3864;48.180;14.178;2024-02-26T02:13:48;34.08;;;12.70;;
7645;SDS011;3864;48.180;14.178;2024-02-26T02:18:44;36.88;;;10.98;;
7645;SDS011;3864;48.180;14.178;2024-02-26T02:21:12;26.02;;;10.65;;
7645;SDS011;3864;48.180;14.178;2024-02-26T02:23:39;39.15;;;11.55;;
7645;SDS011;3864;48.180;14.178;2024-02-26T02:26:11;66.72;;;12.98;;
7645;SDS011;3864;48.180;14.178;2024-02-26T02:28:39;40.22;;;11.40;;
7645;SDS011;3864;48.180;14.178;2024-02-26T02:31:06;30.55;;;11.98;;
7645;SDS011;3864;48.180;14.178;2024-02-26T02:33:34;59.33;;;11.88;;
7645;SDS011;3864;48.180;14.178;2024-02-26T02:36:01;32.13;;;10.70;;
7645;SDS011;3864;48.180;14.178;2024-02-26T02:38:30;42.03;;;12.27;;
7645;SDS011;3864;48.180;14.178;2024-02-26T02:40:59;36.95;;;11.57;;
7645;SDS011;3864;48.180;14.178;2024-02-26T02:43:26;20.33;;;11.75;;
7645;SDS011;3864;48.180;14.178;2024-02-26T02:45:53;31.83;;;11.32;;
7645;SDS011;3864;48.180;14.178;2024-02-26T02:50:47;33.95;;;10.45;;
7645;SDS011;3864;48.180;14.178;2024-02-26T02:53:15;41.50;;;11.23;;
7645;SDS011;3864;48.180;14.178;2024-02-26T02:55:45;31.83;;;10.88;;
7645;SDS011;3864;48.180;14.178;2024-02-26T02:58:12;40.03;;;12.65;;
7645;SDS011;3864;48.180;14.178;2024-02-26T03:00:39;34.70;;;13.05;;
7645;SDS011;3864;48.180;14.178;2024-02-26T03:03:06;59.60;;;13.00;;
7645;SDS011;3864;48.180;14.178;2024-02-26T03:05:33;55.08;;;13.70;;
7645;SDS011;3864;48.180;14.178;2024-02-26T03:08:00;43.60;;;13.77;;
7645;SDS011;3864;48.180;14.178;2024-02-26T03:12:56;31.98;;;11.25;;
7645;SDS011;3864;48.180;14.178;2024-02-26T03:15:23;55.47;;;13.05;;
7645;SDS011;3864;48.180;14.178;2024-02-26T03:20:18;31.42;;;11.15;;
7645;SDS011;3864;48.180;14.178;2024-02-26T03:22:45;34.10;;;11.57;;
7645;SDS011;3864;48.180;14.178;2024-02-26T03:25:12;51.17;;;13.52;;
7645;SDS011;3864;48.180;14.178;2024-02-26T03:27:39;48.08;;;12.82;;
7645;SDS011;3864;48.180;14.178;2024-02-26T03:30:09;32.50;;;10.80;;
7645;SDS011;3864;48.180;14.178;2024-02-26T03:32:37;29.20;;;11.60;;
7645;SDS011;3864;48.180;14.178;2024-02-26T03:37:32;23.65;;;10.60;;
7645;SDS011;3864;48.180;14.178;2024-02-26T03:42:26;17.20;;;9.85;;
7645;SDS011;3864;48.180;14.178;2024-02-26T03:44:53;20.10;;;10.75;;
7645;SDS011;3864;48.180;14.178;2024-02-26T03:47:22;26.13;;;10.45;;
7645;SDS011;3864;48.180;14.178;2024-02-26T03:49:49;30.83;;;12.00;;
7645;SDS011;3864;48.180;14.178;2024-02-26T03:52:16;18.60;;;10.90;;
7645;SDS011;3864;48.180;14.178;2024-02-26T03:57:10;23.33;;;10.00;;
7645;SDS011;3864;48.180;14.178;2024-02-26T03:59:38;17.77;;;10.23;;
7645;SDS011;3864;48.180;14.178;2024-02-26T04:02:05;17.92;;;10.07;;
7645;SDS011;3864;48.180;14.178;2024-02-26T04:04:36;21.20;;;9.52;;
7645;SDS011;3864;48.180;14.178;2024-02-26T04:07:03;17.83;;;10.07;;
7645;SDS011;3864;48.180;14.178;2024-02-26T04:09:30;17.90;;;10.88;;
7645;SDS011;3864;48.180;14.178;2024-02-26T04:11:58;20.55;;;10.60;;
7645;SDS011;3864;48.180;14.178;2024-02-26T04:14:25;30.63;;;11.80;;
7645;SDS011;3864;48.180;14.178;2024-02-26T04:19:19;21.08;;;10.32;;
7645;SDS011;3864;48.180;14.178;2024-02-26T04:21:48;19.48;;;9.95;;
7645;SDS011;3864;48.180;14.178;2024-02-26T04:24:15;20.23;;;9.88;;
7645;SDS011;3864;48.180;14.178;2024-02-26T04:26:42;18.42;;;10.43;;
7645;SDS011;3864;48.180;14.178;2024-02-26T04:29:09;18.95;;;10.80;;
7645;SDS011;3864;48.180;14.178;2024-02-26T04:31:37;19.10;;;10.82;;
7645;SDS011;3864;48.180;14.178;2024-02-26T04:34:04;21.48;;;11.13;;
7645;SDS011;3864;48.180;14.178;2024-02-26T04:36:31;19.30;;;10.57;;
7645;SDS011;3864;48.180;14.178;2024-02-26T04:41:27;19.27;;;9.73;;
7645;SDS011;3864;48.180;14.178;2024-02-26T04:46:21;28.60;;;10.25;;
7645;SDS011;3864;48.180;14.178;2024-02-26T04:48:48;20.42;;;10.20;;
7645;SDS011;3864;48.180;14.178;2024-02-26T04:53:42;22.58;;;9.00;;
7645;SDS011;3864;48.180;14.178;2024-02-26T04:56:11;27.83;;;10.52;;
7645;SDS011;3864;48.180;14.178;2024-02-26T04:58:38;29.17;;;12.35;;
7645;SDS011;3864;48.180;14.178;2024-02-26T05:01:06;28.92;;;11.25;;
7645;SDS011;3864;48.180;14.178;2024-02-26T05:03:35;26.85;;;11.73;;
7645;SDS011;3864;48.180;14.178;2024-02-26T05:08:30;20.10;;;9.88;;
7645;SDS011;3864;48.180;14.178;2024-02-26T05:11:01;22.67;;;11.82;;
7645;SDS011;3864;48.180;14.178;2024-02-26T05:13:30;18.80;;;11.25;;
7645;SDS011;3864;48.180;14.178;2024-02-26T05:15:58;26.35;;;11.45;;
7645;SDS011;3864;48.180;14.178;2024-02-26T05:18:25;40.33;;;11.68;;
7645;SDS011;3864;48.180;14.178;2024-02-26T05:20:52;39.72;;;12.15;;
7645;SDS011;3864;48.180;14.178;2024-02-26T05:23:19;44.35;;;12.35;;
7645;SDS011;3864;48.180;14.178;2024-02-26T05:28:13;33.92;;;11.13;;
7645;SDS011;3864;48.180;14.178;2024-02-26T05:30:43;16.33;;;9.98;;
7645;SDS011;3864;48.180;14.178;2024-02-26T05:33:10;37.00;;;11.13;;
7645;SDS011;3864;48.180;14.178;2024-02-26T05:35:37;50.72;;;12.90;;
7645;SDS011;3864;48.180;14.178;2024-02-26T05:38:05;48.95;;;11.15;;
7645;SDS011;3864;48.180;14.178;2024-02-26T05:40:33;63.92;;;13.95;;
7645;SDS011;3864;48.180;14.178;2024-02-26T05:43:00;57.38;;;12.02;;
7645;SDS011;3864;48.180;14.178;2024-02-26T05:45:27;21.00;;;11.07;;
7645;SDS011;3864;48.180;14.178;2024-02-26T05:47:56;25.40;;;11.10;;
7645;SDS011;3864;48.180;14.178;2024-02-26T05:50:23;35.40;;;11.40;;
7645;SDS011;3864;48.180;14.178;2024-02-26T05:52:50;58.60;;;13.00;;
7645;SDS011;3864;48.180;14.178;2024-02-26T05:55:18;49.10;;;12.60;;
7645;SDS011;3864;48.180;14.178;2024-02-26T05:57:45;55.70;;;12.63;;
7645;SDS011;3864;48.180;14.178;2024-02-26T06:00:12;53.65;;;11.93;;
7645;SDS011;3864;48.180;14.178;2024-02-26T06:02:40;33.80;;;11.65;;
7645;SDS011;3864;48.180;14.178;2024-02-26T06:05:09;45.08;;;13.40;;
7645;SDS011;3864;48.180;14.178;2024-02-26T06:07:36;26.30;;;11.52;;
7645;SDS011;3864;48.180;14.178;2024-02-26T06:12:31;21.83;;;9.95;;
7645;SDS011;3864;48.180;14.178;2024-02-26T06:15:01;29.38;;;11.57;;
7645;SDS011;3864;48.180;14.178;2024-02-26T06:17:29;18.85;;;10.63;;
7645;SDS011;3864;48.180;14.178;2024-02-26T06:19:56;20.98;;;11.30;;
7645;SDS011;3864;48.180;14.178;2024-02-26T06:22:26;46.28;;;12.15;;
7645;SDS011;3864;48.180;14.178;2024-02-26T06:24:53;28.75;;;11.80;;
7645;SDS011;3864;48.180;14.178;2024-02-26T06:29:47;24.10;;;10.48;;
7645;SDS011;3864;48.180;14.178;2024-02-26T06:32:14;21.00;;;9.82;;
7645;SDS011;3864;48.180;14.178;2024-02-26T06:37:08;21.90;;;10.63;;
7645;SDS011;3864;48.180;14.178;2024-02-26T06:39:37;21.92;;;10.65;;
7645;SDS011;3864;48.180;14.178;2024-02-26T06:42:05;24.05;;;11.57;;
7645;SDS011;3864;48.180;14.178;2024-02-26T06:44:32;25.17;;;11.38;;
7645;SDS011;3864;48.180;14.178;2024-02-26T06:47:00;25.48;;;11.40;;
7645;SDS011;3864;48.180;14.178;2024-02-26T06:49:28;21.63;;;11.40;;
7645;SDS011;3864;48.180;14.178;2024-02-26T06:51:55;21.58;;;11.60;;
7645;SDS011;3864;48.180;14.178;2024-02-26T06:54:22;24.42;;;11.82;;
7645;SDS011;3864;48.180;14.178;2024-02-26T06:56:51;20.67;;;11.32;;
7645;SDS011;3864;48.180;14.178;2024-02-26T06:59:18;27.13;;;11.50;;
7645;SDS011;3864;48.180;14.178;2024-02-26T07:01:46;36.13;;;13.68;;
7645;SDS011;3864;48.180;14.178;2024-02-26T07:04:13;30.30;;;12.25;;
7645;SDS011;3864;48.180;14.178;2024-02-26T07:06:40;34.33;;;13.07;;
7645;SDS011;3864;48.180;14.178;2024-02-26T07:09:08;25.70;;;12.27;;
7645;SDS011;3864;48.180;14.178;2024-02-26T07:11:37;32.33;;;12.80;;
7645;SDS011;3864;48.180;14.178;2024-02-26T07:14:08;31.23;;;13.35;;
7645;SDS011;3864;48.180;14.178;2024-02-26T07:16:36;63.28;;;14.95;;
7645;SDS011;3864;48.180;14.178;2024-02-26T07:21:30;34.70;;;11.60;;
7645;SDS011;3864;48.180;14.178;2024-02-26T07:23:57;37.72;;;13.00;;
7645;SDS011;3864;48.180;14.178;2024-02-26T07:26:24;26.95;;;11.73;;
7645;SDS011;3864;48.180;14.178;2024-02-26T07:28:51;62.70;;;16.00;;
7645;SDS011;3864;48.180;14.178;2024-02-26T07:33:47;57.78;;;12.50;;
7645;SDS011;3864;48.180;14.178;2024-02-26T07:36:14;101.07;;;16.60;;
7645;SDS011;3864;48.180;14.178;2024-02-26T07:38:41;46.78;;;14.32;;
7645;SDS011;3864;48.180;14.178;2024-02-26T07:41:08;65.97;;;15.35;;
7645;SDS011;3864;48.180;14.178;2024-02-26T07:43:35;89.68;;;16.85;;
7645;SDS011;3864;48.180;14.178;2024-02-26T07:46:03;65.80;;;15.73;;
7645;SDS011;3864;48.180;14.178;2024-02-26T07:48:32;69.13;;;16.27;;
7645;SDS011;3864;48.180;14.178;2024-02-26T07:51:00;62.83;;;14.68;;
7645;SDS011;3864;48.180;14.178;2024-02-26T07:53:28;49.28;;;15.38;;
7645;SDS011;3864;48.180;14.178;2024-02-26T07:58:22;54.00;;;14.30;;
7645;SDS011;3864;48.180;14.178;2024-02-26T08:00:50;69.88;;;16.60;;
7645;SDS011;3864;48.180;14.178;2024-02-26T08:03:19;49.95;;;14.93;;
7645;SDS011;3864;48.180;14.178;2024-02-26T08:05:48;81.88;;;17.58;;
7645;SDS011;3864;48.180;14.178;2024-02-26T08:08:15;58.90;;;17.80;;
7645;SDS011;3864;48.180;14.178;2024-02-26T08:13:09;102.20;;;19.15;;
7645;SDS011;3864;48.180;14.178;2024-02-26T08:18:03;58.55;;;16.27;;
7645;SDS011;3864;48.180;14.178;2024-02-26T08:20:31;74.40;;;18.20;;
7645;SDS011;3864;48.180;14.178;2024-02-26T08:23:00;105.90;;;21.73;;
7645;SDS011;3864;48.180;14.178;2024-02-26T08:25:27;68.90;;;18.05;;
7645;SDS011;3864;48.180;14.178;2024-02-26T08:30:21;37.63;;;16.08;;
7645;SDS011;3864;48.180;14.178;2024-02-26T08:32:49;112.28;;;23.33;;
7645;SDS011;3864;48.180;14.178;2024-02-26T08:35:17;77.90;;;21.00;;
7645;SDS011;3864;48.180;14.178;2024-02-26T08:37:47;175.68;;;28.02;;
7645;SDS011;3864;48.180;14.178;2024-02-26T08:40:16;46.40;;;18.83;;
7645;SDS011;3864;48.180;14.178;2024-02-26T08:42:44;43.72;;;19.35;;
7645;SDS011;3864;48.180;14.178;2024-02-26T08:47:38;68.55;;;19.17;;
7645;SDS011;3864;48.180;14.178;2024-02-26T08:50:06;78.78;;;20.92;;
7645;SDS011;3864;48.180;14.178;2024-02-26T08:52:34;62.97;;;20.50;;
7645;SDS011;3864;48.180;14.178;2024-02-26T08:55:01;65.35;;;22.13;;
7645;SDS011;3864;48.180;14.178;2024-02-26T08:57:31;52.20;;;19.77;;
7645;SDS011;3864;48.180;14.178;2024-02-26T08:59:59;49.75;;;20.60;;
7645;SDS011;3864;48.180;14.178;2024-02-26T09:02:26;46.15;;;19.23;;
7645;SDS011;3864;48.180;14.178;2024-02-26T09:04:53;54.40;;;21.23;;
7645;SDS011;3864;48.180;14.178;2024-02-26T09:09:48;55.40;;;19.45;;
7645;SDS011;3864;48.180;14.178;2024-02-26T09:12:16;49.83;;;20.52;;
7645;SDS011;3864;48.180;14.178;2024-02-26T09:14:44;55.47;;;20.60;;
7645;SDS011;3864;48.180;14.178;2024-02-26T09:17:11;55.80;;;21.15;;
7645;SDS011;3864;48.180;14.178;2024-02-26T09:19:38;50.38;;;22.25;;
7645;SDS011;3864;48.180;14.178;2024-02-26T09:22:07;43.83;;;20.60;;
7645;SDS011;3864;48.180;14.178;2024-02-26T09:24:35;41.45;;;20.75;;
7645;SDS011;3864;48.180;14.178;2024-02-26T09:27:03;46.72;;;20.10;;
7645;SDS011;3864;48.180;14.178;2024-02-26T09:29:30;42.53;;;22.33;;
7645;SDS011;3864;48.180;14.178;2024-02-26T09:31:59;41.83;;;20.58;;
7645;SDS011;3864;48.180;14.178;2024-02-26T09:34:27;40.50;;;22.63;;
7645;SDS011;3864;48.180;14.178;2024-02-26T09:36:55;37.13;;;20.50;;
7645;SDS011;3864;48.180;14.178;2024-02-26T09:39:22;35.53;;;18.98;;
7645;SDS011;3864;48.180;14.178;2024-02-26T09:41:49;39.08;;;20.38;;
7645;SDS011;3864;48.180;14.178;2024-02-26T09:44:19;33.78;;;18.92;;
7645;SDS011;3864;48.180;14.178;2024-02-26T09:46:47;38.47;;;21.25;;
7645;SDS011;3864;48.180;14.178;2024-02-26T09:49:17;36.58;;;20.13;;
7645;SDS011;3864;48.180;14.178;2024-02-26T09:51:46;27.83;;;17.80;;
7645;SDS011;3864;48.180;14.178;2024-02-26T09:54:15;27.83;;;16.65;;
7645;SDS011;3864;48.180;14.178;2024-02-26T09:56:44;26.80;;;17.23;;
7645;SDS011;3864;48.180;14.178;2024-02-26T09:59:17;24.88;;;15.15;;
7645;SDS011;3864;48.180;14.178;2024-02-26T10:01:44;24.38;;;15.20;;
7645;SDS011;3864;48.180;14.178;2024-02-26T10:04:14;23.35;;;15.45;;
7645;SDS011;3864;48.180;14.178;2024-02-26T10:06:44;22.77;;;15.27;;
7645;SDS011;3864;48.180;14.178;2024-02-26T10:09:12;24.15;;;16.15;;
7645;SDS011;3864;48.180;14.178;2024-02-26T10:11:41;22.92;;;14.77;;
7645;SDS011;3864;48.180;14.178;2024-02-26T10:14:09;26.05;;;16.15;;
7645;SDS011;3864;48.180;14.178;2024-02-26T10:16:37;25.52;;;15.82;;
7645;SDS011;3864;48.180;14.178;2024-02-26T10:19:04;22.00;;;14.98;;
7645;SDS011;3864;48.180;14.178;2024-02-26T10:21:34;22.25;;;14.45;;
7645;SDS011;3864;48.180;14.178;2024-02-26T10:24:01;23.75;;;14.43;;
7645;SDS011;3864;48.180;14.178;2024-02-26T10:26:29;20.30;;;13.23;;
7645;SDS011;3864;48.180;14.178;2024-02-26T10:28:57;20.73;;;13.82;;
7645;SDS011;3864;48.180;14.178;2024-02-26T10:31:27;21.08;;;15.05;;
7645;SDS011;3864;48.180;14.178;2024-02-26T10:33:55;21.00;;;13.65;;
7645;SDS011;3864;48.180;14.178;2024-02-26T10:36:24;20.33;;;14.23;;
7645;SDS011;3864;48.180;14.178;2024-02-26T10:38:56;18.95;;;12.60;;
7645;SDS011;3864;48.180;14.178;2024-02-26T10:41:23;19.33;;;13.05;;
7645;SDS011;3864;48.180;14.178;2024-02-26T10:43:50;20.90;;;12.50;;
7645;SDS011;3864;48.180;14.178;2024-02-26T10:46:17;21.52;;;15.18;;
7645;SDS011;3864;48.180;14.178;2024-02-26T10:48:49;19.58;;;14.27;;
7645;SDS011;3864;48.180;14.178;2024-02-26T10:51:17;18.98;;;12.55;;
7645;SDS011;3864;48.180;14.178;2024-02-26T10:53:48;17.90;;;12.98;;
7645;SDS011;3864;48.180;14.178;2024-02-26T10:56:24;17.63;;;13.10;;
7645;SDS011;3864;48.180;14.178;2024-02-26T10:58:52;17.60;;;12.43;;
7645;SDS011;3864;48.180;14.178;2024-02-26T11:01:21;15.95;;;11.85;;
7645;SDS011;3864;48.180;14.178;2024-02-26T11:03:50;14.38;;;10.93;;
7645;SDS011;3864;48.180;14.178;2024-02-26T11:06:19;12.93;;;10.18;;
7645;SDS011;3864;48.180;14.178;2024-02-26T11:08:47;12.48;;;9.27;;
7645;SDS011;3864;48.180;14.178;2024-02-26T11:11:16;14.85;;;9.00;;
7645;SDS011;3864;48.180;14.178;2024-02-26T11:13:46;13.15;;;9.05;;
7645;SDS011;3864;48.180;14.178;2024-02-26T11:16:16;11.77;;;9.00;;
7645;SDS011;3864;48.180;14.178;2024-02-26T11:18:45;9.80;;;6.82;;
7645;SDS011;3864;48.180;14.178;2024-02-26T11:21:15;10.40;;;7.20;;
7645;SDS011;3864;48.180;14.178;2024-02-26T11:23:43;11.32;;;6.32;;
7645;SDS011;3864;48.180;14.178;2024-02-26T11:26:12;8.30;;;5.80;;
7645;SDS011;3864;48.180;14.178;2024-02-26T11:28:42;6.60;;;5.47;;
7645;SDS011;3864;48.180;14.178;2024-02-26T11:31:12;7.55;;;5.03;;
7645;SDS011;3864;48.180;14.178;2024-02-26T11:33:39;6.82;;;5.32;;
7645;SDS011;3864;48.180;14.178;2024-02-26T11:36:07;7.95;;;6.75;;
7645;SDS011;3864;48.180;14.178;2024-02-26T11:38:36;7.68;;;6.07;;
7645;SDS011;3864;48.180;14.178;2024-02-26T11:41:05;7.75;;;5.57;;
7645;SDS011;3864;48.180;14.178;2024-02-26T11:43:53;7.05;;;5.93;;
7645;SDS011;3864;48.180;14.178;2024-02-26T11:46:26;10.32;;;6.20;;
7645;SDS011;3864;48.180;14.178;2024-02-26T11:48:56;8.60;;;6.03;;
7645;SDS011;3864;48.180;14.178;2024-02-26T11:51:25;8.38;;;5.43;;
7645;SDS011;3864;48.180;14.178;2024-02-26T11:53:53;7.15;;;5.13;;
7645;SDS011;3864;48.180;14.178;2024-02-26T11:56:22;6.75;;;5.43;;
7645;SDS011;3864;48.180;14.178;2024-02-26T11:58:56;6.45;;;5.03;;
7645;SDS011;3864;48.180;14.178;2024-02-26T12:01:37;6.05;;;4.68;;
7645;SDS011;3864;48.180;14.178;2024-02-26T12:04:05;6.03;;;4.40;;
7645;SDS011;3864;48.180;14.178;2024-02-26T12:06:43;5.90;;;4.40;;
7645;SDS011;3864;48.180;14.178;2024-02-26T12:09:12;5.57;;;4.22;;
7645;SDS011;3864;48.180;14.178;2024-02-26T12:11:39;5.53;;;3.88;;
7645;SDS011;3864;48.180;14.178;2024-02-26T12:14:10;6.05;;;5.05;;
7645;SDS011;3864;48.180;14.178;2024-02-26T12:16:39;5.47;;;4.15;;
7645;SDS011;3864;48.180;14.178;2024-02-26T12:19:08;8.90;;;6.10;;
7645;SDS011;3864;48.180;14.178;2024-02-26T12:21:36;11.05;;;6.53;;
7645;SDS011;3864;48.180;14.178;2024-02-26T12:24:10;13.52;;;6.65;;
7645;SDS011;3864;48.180;14.178;2024-02-26T12:26:39;8.82;;;6.30;;
7645;SDS011;3864;48.180;14.178;2024-02-26T12:29:07;11.13;;;6.65;;
7645;SDS011;3864;48.180;14.178;2024-02-26T12:31:37;8.15;;;5.95;;
7645;SDS011;3864;48.180;14.178;2024-02-26T12:34:06;8.88;;;6.10;;
7645;SDS011;3864;48.180;14.178;2024-02-26T12:36:35;10.38;;;6.68;;
7645;SDS011;3864;48.180;14.178;2024-02-26T12:39:03;9.65;;;6.72;;
7645;SDS011;3864;48.180;14.178;2024-02-26T12:41:32;9.35;;;6.60;;
7645;SDS011;3864;48.180;14.178;2024-02-26T12:43:59;9.27;;;6.68;;
7645;SDS011;3864;48.180;14.178;2024-02-26T12:46:26;8.40;;;6.05;;
7645;SDS011;3864;48.180;14.178;2024-02-26T12:48:57;8.38;;;6.18;;
7645;SDS011;3864;48.180;14.178;2024-02-26T12:51:25;8.30;;;5.47;;
7645;SDS011;3864;48.180;14.178;2024-02-26T12:53:53;8.60;;;6.18;;
7645;SDS011;3864;48.180;14.178;2024-02-26T12:56:21;7.05;;;5.25;;
7645;SDS011;3864;48.180;14.178;2024-02-26T12:58:50;9.15;;;5.22;;
7645;SDS011;3864;48.180;14.178;2024-02-26T13:01:20;7.55;;;5.85;;
7645;SDS011;3864;48.180;14.178;2024-02-26T13:03:49;6.50;;;5.45;;
7645;SDS011;3864;48.180;14.178;2024-02-26T13:06:19;7.13;;;4.88;;
7645;SDS011;3864;48.180;14.178;2024-02-26T13:08:47;7.43;;;5.30;;
7645;SDS011;3864;48.180;14.178;2024-02-26T13:11:14;6.07;;;5.38;;
7645;SDS011;3864;48.180;14.178;2024-02-26T13:13:41;9.82;;;6.45;;
7645;SDS011;3864;48.180;14.178;2024-02-26T13:16:09;10.35;;;5.72;;
7645;SDS011;3864;48.180;14.178;2024-02-26T13:18:40;7.28;;;5.30;;
7645;SDS011;3864;48.180;14.178;2024-02-26T13:21:08;8.90;;;5.53;;
7645;SDS011;3864;48.180;14.178;2024-02-26T13:23:38;7.60;;;5.03;;
7645;SDS011;3864;48.180;14.178;2024-02-26T13:26:06;8.18;;;5.55;;
7645;SDS011;3864;48.180;14.178;2024-02-26T13:28:34;7.93;;;5.88;;
7645;SDS011;3864;48.180;14.178;2024-02-26T13:31:01;7.07;;;5.50;;
7645;SDS011;3864;48.180;14.178;2024-02-26T13:33:29;8.48;;;6.15;;
7645;SDS011;3864;48.180;14.178;2024-02-26T13:35:57;8.50;;;5.85;;
7645;SDS011;3864;48.180;14.178;2024-02-26T13:38:25;8.10;;;5.57;;
7645;SDS011;3864;48.180;14.178;2024-02-26T13:40:55;8.95;;;5.65;;
7645;SDS011;3864;48.180;14.178;2024-02-26T13:43:22;7.53;;;5.93;;
7645;SDS011;3864;48.180;14.178;2024-02-26T13:45:49;7.53;;;6.15;;
7645;SDS011;3864;48.180;14.178;2024-02-26T13:48:16;9.38;;;6.20;;
7645;SDS011;3864;48.180;14.178;2024-02-26T13:50:43;8.68;;;5.95;;
7645;SDS011;3864;48.180;14.178;2024-02-26T13:53:13;7.93;;;5.95;;
7645;SDS011;3864;48.180;14.178;2024-02-26T13:55:40;7.05;;;5.00;;
7645;SDS011;3864;48.180;14.178;2024-02-26T13:58:11;9.15;;;6.43;;
7645;SDS011;3864;48.180;14.178;2024-02-26T14:00:39;9.40;;;5.97;;
7645;SDS011;3864;48.180;14.178;2024-02-26T14:03:06;6.95;;;5.03;;
7645;SDS011;3864;48.180;14.178;2024-02-26T14:05:34;8.80;;;5.28;;
7645;SDS011;3864;48.180;14.178;2024-02-26T14:08:01;7.50;;;5.10;;
7645;SDS011;3864;48.180;14.178;2024-02-26T14:10:29;8.80;;;5.68;;
7645;SDS011;3864;48.180;14.178;2024-02-26T14:12:57;6.40;;;5.50;;
7645;SDS011;3864;48.180;14.178;2024-02-26T14:15:26;8.13;;;5.53;;
7645;SDS011;3864;48.180;14.178;2024-02-26T14:17:53;7.35;;;5.80;;
7645;SDS011;3864;48.180;14.178;2024-02-26T14:20:21;7.43;;;5.70;;
7645;SDS011;3864;48.180;14.178;2024-02-26T14:22:49;8.77;;;5.82;;
7645;SDS011;3864;48.180;14.178;2024-02-26T14:25:18;8.40;;;6.13;;
7645;SDS011;3864;48.180;14.178;2024-02-26T14:27:46;8.52;;;5.57;;
7645;SDS011;3864;48.180;14.178;2024-02-26T14:30:13;8.85;;;6.15;;
7645;SDS011;3864;48.180;14.178;2024-02-26T14:32:42;9.90;;;5.60;;
7645;SDS011;3864;48.180;14.178;2024-02-26T14:35:10;7.55;;;5.35;;
7645;SDS011;3864;48.180;14.178;2024-02-26T14:37:37;9.85;;;6.32;;
7645;SDS011;3864;48.180;14.178;2024-02-26T14:40:05;9.07;;;6.57;;
7645;SDS011;3864;48.180;14.178;2024-02-26T14:42:33;7.80;;;6.25;;
7645;SDS011;3864;48.180;14.178;2024-02-26T14:45:00;8.85;;;5.88;;
7645;SDS011;3864;48.180;14.178;2024-02-26T14:47:27;8.88;;;5.72;;
7645;SDS011;3864;48.180;14.178;2024-02-26T14:49:56;8.23;;;6.30;;
7645;SDS011;3864;48.180;14.178;2024-02-26T14:52:23;8.82;;;6.72;;
7645;SDS011;3864;48.180;14.178;2024-02-26T14:54:50;11.55;;;6.93;;
7645;SDS011;3864;48.180;14.178;2024-02-26T14:57:17;8.55;;;5.93;;
7645;SDS011;3864;48.180;14.178;2024-02-26T14:59:45;8.65;;;6.18;;
7645;SDS011;3864;48.180;14.178;2024-02-26T15:02:12;9.82;;;6.60;;
7645;SDS011;3864;48.180;14.178;2024-02-26T15:04:40;10.30;;;6.03;;
7645;SDS011;3864;48.180;14.178;2024-02-26T15:07:09;11.50;;;6.88;;
7645;SDS011;3864;48.180;14.178;2024-02-26T15:09:36;8.60;;;6.05;;
7645;SDS011;3864;48.180;14.178;2024-02-26T15:12:05;11.05;;;7.22;;
7645;SDS011;3864;48.180;14.178;2024-02-26T15:14:33;9.38;;;6.68;;
7645;SDS011;3864;48.180;14.178;2024-02-26T15:17:00;9.88;;;6.65;;
7645;SDS011;3864;48.180;14.178;2024-02-26T15:19:27;8.85;;;6.50;;
7645;SDS011;3864;48.180;14.178;2024-02-26T15:21:55;8.60;;;5.88;;
7645;SDS011;3864;48.180;14.178;2024-02-26T15:24:23;8.55;;;5.85;;
7645;SDS011;3864;48.180;14.178;2024-02-26T15:26:51;9.02;;;6.60;;
7645;SDS011;3864;48.180;14.178;2024-02-26T15:29:18;8.93;;;7.03;;
7645;SDS011;3864;48.180;14.178;2024-02-26T15:31:45;7.93;;;6.20;;
7645;SDS011;3864;48.180;14.178;2024-02-26T15:34:12;9.25;;;6.10;;
7645;SDS011;3864;48.180;14.178;2024-02-26T15:36:40;8.25;;;5.80;;
7645;SDS011;3864;48.180;14.178;2024-02-26T15:39:07;12.25;;;5.85;;
7645;SDS011;3864;48.180;14.178;2024-02-26T15:41:36;8.82;;;5.93;;
7645;SDS011;3864;48.180;14.178;2024-02-26T15:44:04;9.07;;;5.93;;
7645;SDS011;3864;48.180;14.178;2024-02-26T15:46:32;10.52;;;7.47;;
7645;SDS011;3864;48.180;14.178;2024-02-26T15:48:59;8.98;;;6.03;;
7645;SDS011;3864;48.180;14.178;2024-02-26T15:51:26;10.27;;;6.93;;
7645;SDS011;3864;48.180;14.178;2024-02-26T15:53:53;10.00;;;6.38;;
7645;SDS011;3864;48.180;14.178;2024-02-26T15:56:20;10.43;;;5.93;;
7645;SDS011;3864;48.180;14.178;2024-02-26T15:58:50;9.93;;;6.53;;